sensor_id;sensor_type;location;lat;lon;timestamp;P1;durP1;ratioP1;P2;durP2;ratioP2
81191;SDS011;70665;47.652;-2.730;2024-03-22T00:02:22;25.45;;;11.95;;
81191;SDS011;70665;47.652;-2.730;2024-03-22T00:04:47;21.98;;;11.98;;
81191;SDS011;70665;47.652;-2.730;2024-03-22T00:07:13;20.23;;;10.88;;
81191;SDS011;70665;47.652;-2.730;2024-03-22T00:09:39;21.85;;;10.95;;
81191;SDS011;70665;47.652;-2.730;2024-03-22T00:12:04;22.40;;;11.00;;
81191;SDS011;70665;47.652;-2.730;2024-03-22T00:14:30;19.73;;;11.05;;
81191;SDS011;70665;47.652;-2.730;2024-03-22T00:16:56;24.25;;;11.88;;
81191;SDS011;70665;47.652;-2.730;2024-03-22T00:19:21;26.17;;;12.18;;
81191;SDS011;70665;47.652;-2.730;2024-03-22T00:21:47;23.38;;;11.40;;
81191;SDS011;70665;47.652;-2.730;2024-03-22T00:24:13;25.70;;;10.85;;
81191;SDS011;70665;47.652;-2.730;2024-03-22T00:26:38;21.75;;;10.85;;
81191;SDS011;70665;47.652;-2.730;2024-03-22T00:29:04;25.83;;;11.65;;
81191;SDS011;70665;47.652;-2.730;2024-03-22T00:31:30;21.48;;;11.07;;
81191;SDS011;70665;47.652;-2.730;2024-03-22T00:33:55;22.60;;;10.95;;
81191;SDS011;70665;47.652;-2.730;2024-03-22T00:36:21;21.48;;;11.27;;
81191;SDS011;70665;47.652;-2.730;2024-03-22T00:38:47;20.25;;;10.52;;
81191;SDS011;70665;47.652;-2.730;2024-03-22T00:41:12;19.70;;;10.15;;
81191;SDS011;70665;47.652;-2.730;2024-03-22T00:43:38;21.80;;;10.57;;
81191;SDS011;70665;47.652;-2.730;2024-03-22T00:46:03;20.33;;;10.65;;
81191;SDS011;70665;47.652;-2.730;2024-03-22T00:50:55;22.58;;;10.93;;
81191;SDS011;70665;47.652;-2.730;2024-03-22T00:53:20;17.65;;;9.10;;
81191;SDS011;70665;47.652;-2.730;2024-03-22T00:55:46;17.75;;;10.45;;
81191;SDS011;70665;47.652;-2.730;2024-03-22T00:58:16;18.13;;;10.18;;
81191;SDS011;70665;47.652;-2.730;2024-03-22T01:00:44;19.33;;;10.30;;
81191;SDS011;70665;47.652;-2.730;2024-03-22T01:03:10;18.52;;;10.13;;
81191;SDS011;70665;47.652;-2.730;2024-03-22T01:05:36;18.60;;;10.52;;
81191;SDS011;70665;47.652;-2.730;2024-03-22T01:08:01;25.63;;;10.60;;
81191;SDS011;70665;47.652;-2.730;2024-03-22T01:12:53;21.67;;;10.10;;
81191;SDS011;70665;47.652;-2.730;2024-03-22T01:15:19;22.45;;;10.55;;
81191;SDS011;70665;47.652;-2.730;2024-03-22T01:17:44;28.13;;;10.18;;
81191;SDS011;70665;47.652;-2.730;2024-03-22T01:20:10;19.55;;;10.48;;
81191;SDS011;70665;47.652;-2.730;2024-03-22T01:22:36;18.33;;;10.15;;
81191;SDS011;70665;47.652;-2.730;2024-03-22T01:25:02;18.15;;;10.18;;
81191;SDS011;70665;47.652;-2.730;2024-03-22T01:27:28;18.70;;;10.02;;
81191;SDS011;70665;47.652;-2.730;2024-03-22T01:29:53;24.00;;;10.32;;
81191;SDS011;70665;47.652;-2.730;2024-03-22T01:32:19;23.95;;;9.93;;
81191;SDS011;70665;47.652;-2.730;2024-03-22T01:34:45;19.48;;;10.05;;
81191;SDS011;70665;47.652;-2.730;2024-03-22T01:37:10;20.45;;;9.52;;
81191;SDS011;70665;47.652;-2.730;2024-03-22T01:39:36;15.45;;;8.63;;
81191;SDS011;70665;47.652;-2.730;2024-03-22T01:42:01;21.60;;;9.68;;
81191;SDS011;70665;47.652;-2.730;2024-03-22T01:44:27;19.70;;;9.75;;
81191;SDS011;70665;47.652;-2.730;2024-03-22T01:46:54;17.95;;;10.00;;
81191;SDS011;70665;47.652;-2.730;2024-03-22T01:49:21;28.25;;;9.50;;
81191;SDS011;70665;47.652;-2.730;2024-03-22T01:54:13;18.70;;;9.25;;
81191;SDS011;70665;47.652;-2.730;2024-03-22T01:56:41;33.30;;;9.25;;
81191;SDS011;70665;47.652;-2.730;2024-03-22T01:59:07;18.73;;;9.95;;
81191;SDS011;70665;47.652;-2.730;2024-03-22T02:01:33;24.08;;;8.55;;
81191;SDS011;70665;47.652;-2.730;2024-03-22T02:03:59;19.27;;;8.88;;
81191;SDS011;70665;47.652;-2.730;2024-03-22T02:06:25;20.55;;;8.57;;
81191;SDS011;70665;47.652;-2.730;2024-03-22T02:08:51;20.25;;;9.43;;
81191;SDS011;70665;47.652;-2.730;2024-03-22T02:11:16;16.27;;;8.98;;
81191;SDS011;70665;47.652;-2.730;2024-03-22T02:13:42;18.30;;;8.88;;
81191;SDS011;70665;47.652;-2.730;2024-03-22T02:16:08;15.75;;;8.57;;
81191;SDS011;70665;47.652;-2.730;2024-03-22T02:18:34;15.07;;;8.40;;
81191;SDS011;70665;47.652;-2.730;2024-03-22T02:20:59;15.70;;;8.60;;
81191;SDS011;70665;47.652;-2.730;2024-03-22T02:23:34;19.92;;;9.52;;
81191;SDS011;70665;47.652;-2.730;2024-03-22T02:26:01;14.88;;;9.23;;
81191;SDS011;70665;47.652;-2.730;2024-03-22T02:28:28;13.93;;;7.68;;
81191;SDS011;70665;47.652;-2.730;2024-03-22T02:30:55;16.65;;;8.75;;
81191;SDS011;70665;47.652;-2.730;2024-03-22T02:33:21;19.35;;;7.90;;
81191;SDS011;70665;47.652;-2.730;2024-03-22T02:35:46;17.80;;;7.85;;
81191;SDS011;70665;47.652;-2.730;2024-03-22T02:40:38;15.75;;;7.50;;
81191;SDS011;70665;47.652;-2.730;2024-03-22T02:43:04;22.88;;;7.55;;
81191;SDS011;70665;47.652;-2.730;2024-03-22T02:45:30;80.82;;;9.68;;
81191;SDS011;70665;47.652;-2.730;2024-03-22T02:47:56;22.85;;;8.10;;
81191;SDS011;70665;47.652;-2.730;2024-03-22T02:50:21;17.25;;;8.15;;
81191;SDS011;70665;47.652;-2.730;2024-03-22T02:52:50;14.90;;;7.32;;
81191;SDS011;70665;47.652;-2.730;2024-03-22T02:55:16;21.00;;;7.88;;
81191;SDS011;70665;47.652;-2.730;2024-03-22T02:57:42;14.57;;;7.47;;
81191;SDS011;70665;47.652;-2.730;2024-03-22T03:00:08;28.25;;;8.95;;
81191;SDS011;70665;47.652;-2.730;2024-03-22T03:02:34;16.05;;;8.23;;
81191;SDS011;70665;47.652;-2.730;2024-03-22T03:07:25;14.43;;;6.95;;
81191;SDS011;70665;47.652;-2.730;2024-03-22T03:09:52;13.32;;;7.95;;
81191;SDS011;70665;47.652;-2.730;2024-03-22T03:12:18;74.72;;;9.25;;
81191;SDS011;70665;47.652;-2.730;2024-03-22T03:14:44;36.00;;;8.50;;
81191;SDS011;70665;47.652;-2.730;2024-03-22T03:17:09;52.85;;;9.95;;
81191;SDS011;70665;47.652;-2.730;2024-03-22T03:19:35;87.03;;;10.25;;
81191;SDS011;70665;47.652;-2.730;2024-03-22T03:22:02;41.72;;;10.18;;
81191;SDS011;70665;47.652;-2.730;2024-03-22T03:24:27;78.55;;;10.98;;
81191;SDS011;70665;47.652;-2.730;2024-03-22T03:26:53;56.67;;;10.02;;
81191;SDS011;70665;47.652;-2.730;2024-03-22T03:29:19;74.53;;;10.57;;
81191;SDS011;70665;47.652;-2.730;2024-03-22T03:31:45;68.10;;;10.38;;
81191;SDS011;70665;47.652;-2.730;2024-03-22T03:34:10;101.40;;;12.18;;
81191;SDS011;70665;47.652;-2.730;2024-03-22T03:36:36;74.53;;;10.65;;
81191;SDS011;70665;47.652;-2.730;2024-03-22T03:39:02;20.75;;;8.18;;
81191;SDS011;70665;47.652;-2.730;2024-03-22T03:41:28;35.13;;;9.85;;
81191;SDS011;70665;47.652;-2.730;2024-03-22T03:43:54;18.33;;;8.13;;
81191;SDS011;70665;47.652;-2.730;2024-03-22T03:46:20;21.25;;;8.75;;
81191;SDS011;70665;47.652;-2.730;2024-03-22T03:48:45;30.20;;;9.40;;
81191;SDS011;70665;47.652;-2.730;2024-03-22T03:51:11;36.63;;;8.95;;
81191;SDS011;70665;47.652;-2.730;2024-03-22T03:53:37;24.08;;;8.95;;
81191;SDS011;70665;47.652;-2.730;2024-03-22T03:56:02;31.17;;;9.57;;
81191;SDS011;70665;47.652;-2.730;2024-03-22T03:58:28;33.08;;;9.07;;
81191;SDS011;70665;47.652;-2.730;2024-03-22T04:00:54;41.55;;;9.30;;
81191;SDS011;70665;47.652;-2.730;2024-03-22T04:03:19;37.90;;;9.48;;
81191;SDS011;70665;47.652;-2.730;2024-03-22T04:05:45;48.95;;;9.80;;
81191;SDS011;70665;47.652;-2.730;2024-03-22T04:08:11;37.38;;;9.13;;
81191;SDS011;70665;47.652;-2.730;2024-03-22T04:10:36;28.83;;;8.13;;
81191;SDS011;70665;47.652;-2.730;2024-03-22T04:13:02;30.27;;;7.85;;
81191;SDS011;70665;47.652;-2.730;2024-03-22T04:15:28;34.63;;;9.45;;
81191;SDS011;70665;47.652;-2.730;2024-03-22T04:17:56;22.38;;;8.73;;
81191;SDS011;70665;47.652;-2.730;2024-03-22T04:20:21;35.53;;;8.65;;
81191;SDS011;70665;47.652;-2.730;2024-03-22T04:22:47;47.33;;;8.18;;
81191;SDS011;70665;47.652;-2.730;2024-03-22T04:25:17;45.85;;;8.85;;
81191;SDS011;70665;47.652;-2.730;2024-03-22T04:27:42;39.10;;;7.97;;
81191;SDS011;70665;47.652;-2.730;2024-03-22T04:30:08;38.20;;;8.23;;
81191;SDS011;70665;47.652;-2.730;2024-03-22T04:32:35;42.75;;;9.38;;
81191;SDS011;70665;47.652;-2.730;2024-03-22T04:35:00;48.05;;;9.48;;
81191;SDS011;70665;47.652;-2.730;2024-03-22T04:37:27;23.70;;;7.95;;
81191;SDS011;70665;47.652;-2.730;2024-03-22T04:39:53;27.70;;;7.93;;
81191;SDS011;70665;47.652;-2.730;2024-03-22T04:42:19;41.95;;;8.00;;
81191;SDS011;70665;47.652;-2.730;2024-03-22T04:44:45;15.05;;;6.53;;
81191;SDS011;70665;47.652;-2.730;2024-03-22T04:47:10;19.23;;;7.80;;
81191;SDS011;70665;47.652;-2.730;2024-03-22T04:49:36;17.75;;;7.60;;
81191;SDS011;70665;47.652;-2.730;2024-03-22T04:52:01;15.95;;;6.63;;
81191;SDS011;70665;47.652;-2.730;2024-03-22T04:54:27;17.67;;;7.30;;
81191;SDS011;70665;47.652;-2.730;2024-03-22T04:56:53;20.30;;;8.18;;
81191;SDS011;70665;47.652;-2.730;2024-03-22T04:59:18;36.70;;;8.70;;
81191;SDS011;70665;47.652;-2.730;2024-03-22T05:01:44;28.90;;;8.13;;
81191;SDS011;70665;47.652;-2.730;2024-03-22T05:04:09;23.73;;;7.30;;
81191;SDS011;70665;47.652;-2.730;2024-03-22T05:06:35;16.20;;;7.95;;
81191;SDS011;70665;47.652;-2.730;2024-03-22T05:09:01;18.63;;;7.50;;
81191;SDS011;70665;47.652;-2.730;2024-03-22T05:11:28;25.85;;;7.97;;
81191;SDS011;70665;47.652;-2.730;2024-03-22T05:13:54;35.20;;;8.05;;
81191;SDS011;70665;47.652;-2.730;2024-03-22T05:16:19;32.95;;;8.43;;
81191;SDS011;70665;47.652;-2.730;2024-03-22T05:18:45;19.30;;;8.10;;
81191;SDS011;70665;47.652;-2.730;2024-03-22T05:21:10;36.13;;;9.15;;
81191;SDS011;70665;47.652;-2.730;2024-03-22T05:23:36;28.05;;;9.00;;
81191;SDS011;70665;47.652;-2.730;2024-03-22T05:26:01;29.23;;;9.38;;
81191;SDS011;70665;47.652;-2.730;2024-03-22T05:28:29;16.52;;;8.18;;
81191;SDS011;70665;47.652;-2.730;2024-03-22T05:30:55;34.45;;;8.63;;
81191;SDS011;70665;47.652;-2.730;2024-03-22T05:33:21;46.08;;;9.43;;
81191;SDS011;70665;47.652;-2.730;2024-03-22T05:35:46;22.00;;;8.35;;
81191;SDS011;70665;47.652;-2.730;2024-03-22T05:38:12;24.98;;;7.63;;
81191;SDS011;70665;47.652;-2.730;2024-03-22T05:40:38;21.75;;;8.95;;
81191;SDS011;70665;47.652;-2.730;2024-03-22T05:43:03;21.25;;;7.97;;
81191;SDS011;70665;47.652;-2.730;2024-03-22T05:45:29;15.27;;;7.35;;
81191;SDS011;70665;47.652;-2.730;2024-03-22T05:47:55;35.88;;;8.85;;
81191;SDS011;70665;47.652;-2.730;2024-03-22T05:50:21;42.38;;;8.95;;
81191;SDS011;70665;47.652;-2.730;2024-03-22T05:52:47;46.30;;;9.07;;
81191;SDS011;70665;47.652;-2.730;2024-03-22T05:55:12;35.33;;;9.77;;
81191;SDS011;70665;47.652;-2.730;2024-03-22T05:57:38;33.45;;;8.55;;
81191;SDS011;70665;47.652;-2.730;2024-03-22T06:00:04;26.80;;;9.02;;
81191;SDS011;70665;47.652;-2.730;2024-03-22T06:02:32;44.40;;;9.02;;
81191;SDS011;70665;47.652;-2.730;2024-03-22T06:04:58;29.92;;;8.25;;
81191;SDS011;70665;47.652;-2.730;2024-03-22T06:07:23;62.00;;;9.35;;
81191;SDS011;70665;47.652;-2.730;2024-03-22T06:09:50;39.85;;;9.68;;
81191;SDS011;70665;47.652;-2.730;2024-03-22T06:12:17;28.42;;;8.63;;
81191;SDS011;70665;47.652;-2.730;2024-03-22T06:14:43;33.35;;;8.85;;
81191;SDS011;70665;47.652;-2.730;2024-03-22T06:19:35;17.75;;;8.23;;
81191;SDS011;70665;47.652;-2.730;2024-03-22T06:22:02;27.58;;;8.52;;
81191;SDS011;70665;47.652;-2.730;2024-03-22T06:24:28;21.88;;;8.02;;
81191;SDS011;70665;47.652;-2.730;2024-03-22T06:26:53;19.95;;;8.18;;
81191;SDS011;70665;47.652;-2.730;2024-03-22T06:29:19;23.88;;;8.30;;
81191;SDS011;70665;47.652;-2.730;2024-03-22T06:31:45;20.45;;;8.43;;
81191;SDS011;70665;47.652;-2.730;2024-03-22T06:34:11;22.58;;;8.48;;
81191;SDS011;70665;47.652;-2.730;2024-03-22T06:36:36;40.13;;;9.55;;
81191;SDS011;70665;47.652;-2.730;2024-03-22T06:39:02;49.22;;;8.80;;
81191;SDS011;70665;47.652;-2.730;2024-03-22T06:41:31;32.35;;;8.90;;
81191;SDS011;70665;47.652;-2.730;2024-03-22T06:43:57;74.95;;;11.15;;
81191;SDS011;70665;47.652;-2.730;2024-03-22T06:46:22;38.78;;;10.10;;
81191;SDS011;70665;47.652;-2.730;2024-03-22T06:48:48;39.85;;;9.48;;
81191;SDS011;70665;47.652;-2.730;2024-03-22T06:51:14;40.65;;;10.75;;
81191;SDS011;70665;47.652;-2.730;2024-03-22T06:53:39;50.00;;;10.20;;
81191;SDS011;70665;47.652;-2.730;2024-03-22T06:56:05;36.67;;;10.85;;
81191;SDS011;70665;47.652;-2.730;2024-03-22T06:58:33;26.73;;;9.52;;
81191;SDS011;70665;47.652;-2.730;2024-03-22T07:01:00;27.65;;;9.55;;
81191;SDS011;70665;47.652;-2.730;2024-03-22T07:03:26;29.85;;;10.13;;
81191;SDS011;70665;47.652;-2.730;2024-03-22T07:05:51;27.25;;;9.88;;
81191;SDS011;70665;47.652;-2.730;2024-03-22T07:10:43;26.38;;;8.85;;
81191;SDS011;70665;47.652;-2.730;2024-03-22T07:13:10;28.98;;;9.15;;
81191;SDS011;70665;47.652;-2.730;2024-03-22T07:15:36;28.67;;;9.38;;
81191;SDS011;70665;47.652;-2.730;2024-03-22T07:18:02;23.42;;;9.57;;
81191;SDS011;70665;47.652;-2.730;2024-03-22T07:20:28;27.95;;;10.63;;
81191;SDS011;70665;47.652;-2.730;2024-03-22T07:22:55;28.80;;;9.45;;
81191;SDS011;70665;47.652;-2.730;2024-03-22T07:25:20;20.20;;;9.35;;
81191;SDS011;70665;47.652;-2.730;2024-03-22T07:27:46;18.42;;;8.88;;
81191;SDS011;70665;47.652;-2.730;2024-03-22T07:30:14;20.90;;;10.15;;
81191;SDS011;70665;47.652;-2.730;2024-03-22T07:32:40;21.60;;;9.15;;
81191;SDS011;70665;47.652;-2.730;2024-03-22T07:35:06;22.08;;;9.65;;
81191;SDS011;70665;47.652;-2.730;2024-03-22T07:37:35;26.13;;;9.75;;
81191;SDS011;70665;47.652;-2.730;2024-03-22T07:40:01;23.10;;;9.50;;
81191;SDS011;70665;47.652;-2.730;2024-03-22T07:42:27;23.08;;;9.40;;
81191;SDS011;70665;47.652;-2.730;2024-03-22T07:44:53;19.48;;;9.80;;
81191;SDS011;70665;47.652;-2.730;2024-03-22T07:47:18;20.92;;;9.43;;
81191;SDS011;70665;47.652;-2.730;2024-03-22T07:49:44;20.65;;;9.77;;
81191;SDS011;70665;47.652;-2.730;2024-03-22T07:52:10;16.33;;;8.32;;
81191;SDS011;70665;47.652;-2.730;2024-03-22T07:54:36;18.27;;;9.00;;
81191;SDS011;70665;47.652;-2.730;2024-03-22T07:57:01;16.10;;;8.40;;
81191;SDS011;70665;47.652;-2.730;2024-03-22T07:59:27;15.65;;;8.27;;
81191;SDS011;70665;47.652;-2.730;2024-03-22T08:01:53;18.80;;;9.50;;
81191;SDS011;70665;47.652;-2.730;2024-03-22T08:04:19;17.02;;;8.43;;
81191;SDS011;70665;47.652;-2.730;2024-03-22T08:06:45;15.25;;;8.20;;
81191;SDS011;70665;47.652;-2.730;2024-03-22T08:09:11;17.65;;;9.10;;
81191;SDS011;70665;47.652;-2.730;2024-03-22T08:11:36;16.92;;;8.90;;
81191;SDS011;70665;47.652;-2.730;2024-03-22T08:14:02;19.13;;;8.63;;
81191;SDS011;70665;47.652;-2.730;2024-03-22T08:18:57;28.98;;;8.90;;
81191;SDS011;70665;47.652;-2.730;2024-03-22T08:21:23;16.92;;;8.85;;
81191;SDS011;70665;47.652;-2.730;2024-03-22T08:23:49;18.63;;;8.95;;
81191;SDS011;70665;47.652;-2.730;2024-03-22T08:26:18;18.40;;;9.13;;
81191;SDS011;70665;47.652;-2.730;2024-03-22T08:28:44;14.57;;;8.07;;
81191;SDS011;70665;47.652;-2.730;2024-03-22T08:31:11;17.85;;;9.00;;
81191;SDS011;70665;47.652;-2.730;2024-03-22T08:36:03;16.60;;;7.97;;
81191;SDS011;70665;47.652;-2.730;2024-03-22T08:38:28;13.85;;;7.25;;
81191;SDS011;70665;47.652;-2.730;2024-03-22T08:40:54;14.55;;;8.05;;
81191;SDS011;70665;47.652;-2.730;2024-03-22T08:43:20;13.57;;;7.78;;
81191;SDS011;70665;47.652;-2.730;2024-03-22T08:45:47;14.90;;;7.50;;
81191;SDS011;70665;47.652;-2.730;2024-03-22T08:48:13;16.38;;;8.05;;
81191;SDS011;70665;47.652;-2.730;2024-03-22T08:50:41;14.75;;;8.18;;
81191;SDS011;70665;47.652;-2.730;2024-03-22T08:53:07;15.25;;;8.23;;
81191;SDS011;70665;47.652;-2.730;2024-03-22T08:55:33;12.43;;;6.88;;
81191;SDS011;70665;47.652;-2.730;2024-03-22T08:57:59;12.10;;;7.22;;
81191;SDS011;70665;47.652;-2.730;2024-03-22T09:00:24;14.32;;;7.05;;
81191;SDS011;70665;47.652;-2.730;2024-03-22T09:02:50;15.85;;;7.93;;
81191;SDS011;70665;47.652;-2.730;2024-03-22T09:05:15;14.38;;;7.30;;
81191;SDS011;70665;47.652;-2.730;2024-03-22T09:07:41;13.38;;;6.90;;
81191;SDS011;70665;47.652;-2.730;2024-03-22T09:10:07;11.48;;;6.63;;
81191;SDS011;70665;47.652;-2.730;2024-03-22T09:12:34;13.27;;;6.53;;
81191;SDS011;70665;47.652;-2.730;2024-03-22T09:14:59;13.27;;;7.30;;
81191;SDS011;70665;47.652;-2.730;2024-03-22T09:17:25;12.02;;;6.18;;
81191;SDS011;70665;47.652;-2.730;2024-03-22T09:19:51;12.07;;;6.80;;
81191;SDS011;70665;47.652;-2.730;2024-03-22T09:22:17;12.00;;;6.60;;
81191;SDS011;70665;47.652;-2.730;2024-03-22T09:24:43;13.82;;;6.70;;
81191;SDS011;70665;47.652;-2.730;2024-03-22T09:27:08;11.77;;;7.15;;
81191;SDS011;70665;47.652;-2.730;2024-03-22T09:29:37;10.93;;;6.25;;
81191;SDS011;70665;47.652;-2.730;2024-03-22T09:32:03;13.50;;;6.63;;
81191;SDS011;70665;47.652;-2.730;2024-03-22T09:34:29;14.38;;;6.45;;
81191;SDS011;70665;47.652;-2.730;2024-03-22T09:36:55;12.55;;;7.00;;
81191;SDS011;70665;47.652;-2.730;2024-03-22T09:39:21;11.38;;;6.50;;
81191;SDS011;70665;47.652;-2.730;2024-03-22T09:41:47;12.88;;;6.65;;
81191;SDS011;70665;47.652;-2.730;2024-03-22T09:44:15;17.58;;;8.27;;
81191;SDS011;70665;47.652;-2.730;2024-03-22T09:46:44;14.73;;;7.45;;
81191;SDS011;70665;47.652;-2.730;2024-03-22T09:49:11;14.38;;;7.50;;
81191;SDS011;70665;47.652;-2.730;2024-03-22T09:51:37;15.27;;;7.57;;
81191;SDS011;70665;47.652;-2.730;2024-03-22T09:54:04;16.30;;;8.10;;
81191;SDS011;70665;47.652;-2.730;2024-03-22T09:56:30;14.98;;;8.10;;
81191;SDS011;70665;47.652;-2.730;2024-03-22T09:58:57;15.50;;;8.13;;
81191;SDS011;70665;47.652;-2.730;2024-03-22T10:01:23;19.17;;;9.02;;
81191;SDS011;70665;47.652;-2.730;2024-03-22T10:03:51;18.77;;;8.60;;
81191;SDS011;70665;47.652;-2.730;2024-03-22T10:06:17;19.08;;;7.97;;
81191;SDS011;70665;47.652;-2.730;2024-03-22T10:08:43;17.55;;;9.20;;
81191;SDS011;70665;47.652;-2.730;2024-03-22T10:11:09;17.65;;;8.70;;
81191;SDS011;70665;47.652;-2.730;2024-03-22T10:13:35;18.88;;;8.82;;
81191;SDS011;70665;47.652;-2.730;2024-03-22T10:16:01;15.57;;;8.52;;
81191;SDS011;70665;47.652;-2.730;2024-03-22T10:20:59;18.77;;;8.48;;
81191;SDS011;70665;47.652;-2.730;2024-03-22T10:23:29;17.85;;;8.40;;
81191;SDS011;70665;47.652;-2.730;2024-03-22T10:25:56;15.50;;;8.52;;
81191;SDS011;70665;47.652;-2.730;2024-03-22T10:28:23;16.67;;;8.20;;
81191;SDS011;70665;47.652;-2.730;2024-03-22T10:30:52;14.68;;;7.15;;
81191;SDS011;70665;47.652;-2.730;2024-03-22T10:33:22;15.50;;;7.88;;
81191;SDS011;70665;47.652;-2.730;2024-03-22T10:35:51;17.27;;;8.02;;
81191;SDS011;70665;47.652;-2.730;2024-03-22T10:38:19;14.13;;;7.07;;
81191;SDS011;70665;47.652;-2.730;2024-03-22T10:40:45;15.02;;;7.57;;
81191;SDS011;70665;47.652;-2.730;2024-03-22T10:43:14;20.90;;;8.55;;
81191;SDS011;70665;47.652;-2.730;2024-03-22T10:45:40;15.68;;;7.65;;
81191;SDS011;70665;47.652;-2.730;2024-03-22T10:48:10;16.08;;;8.20;;
81191;SDS011;70665;47.652;-2.730;2024-03-22T10:50:40;14.48;;;8.38;;
81191;SDS011;70665;47.652;-2.730;2024-03-22T10:53:11;17.98;;;8.30;;
81191;SDS011;70665;47.652;-2.730;2024-03-22T10:55:45;15.63;;;8.60;;
81191;SDS011;70665;47.652;-2.730;2024-03-22T10:58:16;15.85;;;8.43;;
81191;SDS011;70665;47.652;-2.730;2024-03-22T11:00:43;15.20;;;8.13;;
81191;SDS011;70665;47.652;-2.730;2024-03-22T11:03:09;17.58;;;8.02;;
81191;SDS011;70665;47.652;-2.730;2024-03-22T11:08:23;15.18;;;8.05;;
81191;SDS011;70665;47.652;-2.730;2024-03-22T11:10:49;15.50;;;8.48;;
81191;SDS011;70665;47.652;-2.730;2024-03-22T11:15:41;17.42;;;8.73;;
81191;SDS011;70665;47.652;-2.730;2024-03-22T11:20:35;16.05;;;7.82;;
81191;SDS011;70665;47.652;-2.730;2024-03-22T11:23:03;17.80;;;8.38;;
81191;SDS011;70665;47.652;-2.730;2024-03-22T11:25:31;19.13;;;8.50;;
81191;SDS011;70665;47.652;-2.730;2024-03-22T11:27:57;16.27;;;8.95;;
81191;SDS011;70665;47.652;-2.730;2024-03-22T11:30:24;15.05;;;9.00;;
81191;SDS011;70665;47.652;-2.730;2024-03-22T11:32:49;14.32;;;8.13;;
81191;SDS011;70665;47.652;-2.730;2024-03-22T11:35:16;18.15;;;9.50;;
81191;SDS011;70665;47.652;-2.730;2024-03-22T11:40:10;17.40;;;9.25;;
81191;SDS011;70665;47.652;-2.730;2024-03-22T11:42:40;17.25;;;10.23;;
81191;SDS011;70665;47.652;-2.730;2024-03-22T11:45:08;15.18;;;9.18;;
81191;SDS011;70665;47.652;-2.730;2024-03-22T11:47:35;13.27;;;7.47;;
81191;SDS011;70665;47.652;-2.730;2024-03-22T11:50:02;14.23;;;7.53;;
81191;SDS011;70665;47.652;-2.730;2024-03-22T11:52:28;12.55;;;7.15;;
81191;SDS011;70665;47.652;-2.730;2024-03-22T11:54:54;13.60;;;7.05;;
81191;SDS011;70665;47.652;-2.730;2024-03-22T11:59:46;12.82;;;6.85;;
81191;SDS011;70665;47.652;-2.730;2024-03-22T12:04:41;12.70;;;6.90;;
81191;SDS011;70665;47.652;-2.730;2024-03-22T12:07:11;12.55;;;6.55;;
81191;SDS011;70665;47.652;-2.730;2024-03-22T12:09:38;11.57;;;6.78;;
81191;SDS011;70665;47.652;-2.730;2024-03-22T12:12:05;12.52;;;7.22;;
81191;SDS011;70665;47.652;-2.730;2024-03-22T12:14:32;13.57;;;6.22;;
81191;SDS011;70665;47.652;-2.730;2024-03-22T12:19:24;7.90;;;4.32;;
81191;SDS011;70665;47.652;-2.730;2024-03-22T12:21:49;7.68;;;4.70;;
81191;SDS011;70665;47.652;-2.730;2024-03-22T12:24:15;8.35;;;4.18;;
81191;SDS011;70665;47.652;-2.730;2024-03-22T12:26:40;7.97;;;4.53;;
81191;SDS011;70665;47.652;-2.730;2024-03-22T12:29:06;7.57;;;4.38;;
81191;SDS011;70665;47.652;-2.730;2024-03-22T12:31:32;9.13;;;5.10;;
81191;SDS011;70665;47.652;-2.730;2024-03-22T12:33:58;9.60;;;5.40;;
81191;SDS011;70665;47.652;-2.730;2024-03-22T12:36:33;7.82;;;4.97;;
81191;SDS011;70665;47.652;-2.730;2024-03-22T12:38:59;6.32;;;3.63;;
81191;SDS011;70665;47.652;-2.730;2024-03-22T12:41:25;6.78;;;4.60;;
81191;SDS011;70665;47.652;-2.730;2024-03-22T12:43:51;7.35;;;4.68;;
81191;SDS011;70665;47.652;-2.730;2024-03-22T12:46:17;6.43;;;4.07;;
81191;SDS011;70665;47.652;-2.730;2024-03-22T12:48:42;6.68;;;3.58;;
81191;SDS011;70665;47.652;-2.730;2024-03-22T12:51:08;6.25;;;4.18;;
81191;SDS011;70665;47.652;-2.730;2024-03-22T12:53:34;6.80;;;3.80;;
81191;SDS011;70665;47.652;-2.730;2024-03-22T12:55:59;7.25;;;4.13;;
81191;SDS011;70665;47.652;-2.730;2024-03-22T12:58:25;6.68;;;4.57;;
81191;SDS011;70665;47.652;-2.730;2024-03-22T13:00:50;7.75;;;4.80;;
81191;SDS011;70665;47.652;-2.730;2024-03-22T13:03:16;9.73;;;5.22;;
81191;SDS011;70665;47.652;-2.730;2024-03-22T13:05:42;9.57;;;5.13;;
81191;SDS011;70665;47.652;-2.730;2024-03-22T13:08:08;11.00;;;5.60;;
81191;SDS011;70665;47.652;-2.730;2024-03-22T13:10:33;8.98;;;5.18;;
81191;SDS011;70665;47.652;-2.730;2024-03-22T13:12:59;10.15;;;5.00;;
81191;SDS011;70665;47.652;-2.730;2024-03-22T13:15:24;9.70;;;5.38;;
81191;SDS011;70665;47.652;-2.730;2024-03-22T13:17:50;13.30;;;7.40;;
81191;SDS011;70665;47.652;-2.730;2024-03-22T13:20:17;14.07;;;7.72;;
81191;SDS011;70665;47.652;-2.730;2024-03-22T13:22:45;13.20;;;8.05;;
81191;SDS011;70665;47.652;-2.730;2024-03-22T13:25:11;11.20;;;6.72;;
81191;SDS011;70665;47.652;-2.730;2024-03-22T13:27:36;10.90;;;6.90;;
81191;SDS011;70665;47.652;-2.730;2024-03-22T13:30:06;10.82;;;6.68;;
81191;SDS011;70665;47.652;-2.730;2024-03-22T13:32:38;10.50;;;6.20;;
81191;SDS011;70665;47.652;-2.730;2024-03-22T13:35:04;10.30;;;6.00;;
81191;SDS011;70665;47.652;-2.730;2024-03-22T13:37:31;11.52;;;6.38;;
81191;SDS011;70665;47.652;-2.730;2024-03-22T13:39:57;8.93;;;5.00;;
81191;SDS011;70665;47.652;-2.730;2024-03-22T13:42:22;8.52;;;5.07;;
81191;SDS011;70665;47.652;-2.730;2024-03-22T13:44:49;8.30;;;4.43;;
81191;SDS011;70665;47.652;-2.730;2024-03-22T13:47:14;7.03;;;4.65;;
81191;SDS011;70665;47.652;-2.730;2024-03-22T13:49:40;6.63;;;4.30;;
81191;SDS011;70665;47.652;-2.730;2024-03-22T13:52:09;9.35;;;4.28;;
81191;SDS011;70665;47.652;-2.730;2024-03-22T13:54:35;8.65;;;4.20;;
81191;SDS011;70665;47.652;-2.730;2024-03-22T13:57:01;6.03;;;3.80;;
81191;SDS011;70665;47.652;-2.730;2024-03-22T13:59:27;6.10;;;3.58;;
81191;SDS011;70665;47.652;-2.730;2024-03-22T14:01:54;6.18;;;3.53;;
81191;SDS011;70665;47.652;-2.730;2024-03-22T14:04:21;6.22;;;3.63;;
81191;SDS011;70665;47.652;-2.730;2024-03-22T14:06:48;5.97;;;3.35;;
81191;SDS011;70665;47.652;-2.730;2024-03-22T14:09:14;7.25;;;3.70;;
81191;SDS011;70665;47.652;-2.730;2024-03-22T14:11:40;9.48;;;3.83;;
81191;SDS011;70665;47.652;-2.730;2024-03-22T14:14:07;6.60;;;3.70;;
81191;SDS011;70665;47.652;-2.730;2024-03-22T14:16:39;7.97;;;3.40;;
81191;SDS011;70665;47.652;-2.730;2024-03-22T14:19:06;6.95;;;2.90;;
81191;SDS011;70665;47.652;-2.730;2024-03-22T14:21:33;7.15;;;3.15;;
81191;SDS011;70665;47.652;-2.730;2024-03-22T14:23:59;6.70;;;3.60;;
81191;SDS011;70665;47.652;-2.730;2024-03-22T14:26:25;5.30;;;3.22;;
81191;SDS011;70665;47.652;-2.730;2024-03-22T14:28:51;5.60;;;3.10;;
81191;SDS011;70665;47.652;-2.730;2024-03-22T14:31:17;4.90;;;3.10;;
81191;SDS011;70665;47.652;-2.730;2024-03-22T14:33:44;7.47;;;2.90;;
81191;SDS011;70665;47.652;-2.730;2024-03-22T14:36:10;5.40;;;2.90;;
81191;SDS011;70665;47.652;-2.730;2024-03-22T14:38:38;6.93;;;2.72;;
81191;SDS011;70665;47.652;-2.730;2024-03-22T14:41:03;4.80;;;2.80;;
81191;SDS011;70665;47.652;-2.730;2024-03-22T14:43:29;5.88;;;3.58;;
81191;SDS011;70665;47.652;-2.730;2024-03-22T14:46:01;6.03;;;2.95;;
81191;SDS011;70665;47.652;-2.730;2024-03-22T14:48:29;7.15;;;3.20;;
81191;SDS011;70665;47.652;-2.730;2024-03-22T14:50:55;5.40;;;3.05;;
81191;SDS011;70665;47.652;-2.730;2024-03-22T14:53:21;6.13;;;3.08;;
81191;SDS011;70665;47.652;-2.730;2024-03-22T14:58:19;4.95;;;2.58;;
81191;SDS011;70665;47.652;-2.730;2024-03-22T15:00:55;4.78;;;2.65;;